Time;durP1;ratioP1;P1;durP2;ratioP2;P2;SDS_P1;SDS_P2;PMS_P1;PMS_P2;Temp;Humidity;BMP_temperature;BMP_pressure;BME280_temperature;BME280_humidity;BME280_pressure;Samples;Min_cycle;Max_cycle;Signal;HPM_P1;HPM_P2
2022/12/19 00:00:15;;;;;;;0.30;0.30;;;;;;;-0.25;100.00;101829.97;4982596;28;20483;-73
2022/12/19 00:02:41;;;;;;;0.30;0.30;;;;;;;-0.39;100.00;101831.97;4979608;28;20531;-74
2022/12/19 00:05:06;;;;;;;0.30;0.30;;;;;;;-0.38;100.00;101817.88;4984799;28;20038;-73
2022/12/19 00:07:31;;;;;;;0.20;0.20;;;;;;;-0.40;100.00;101851.34;4980589;28;20065;-75
2022/12/19 00:09:57;;;;;;;0.30;0.30;;;;;;;-0.54;100.00;101814.63;4979527;28;20913;-76
2022/12/19 00:12:25;;;;;;;0.30;0.30;;;;;;;-0.65;100.00;101836.75;4977251;28;20503;-75
2022/12/19 00:14:50;;;;;;;0.30;0.30;;;;;;;-0.21;100.00;101833.44;4979426;28;20069;-75
2022/12/19 00:17:16;;;;;;;0.30;0.30;;;;;;;-0.38;100.00;101831.09;4980397;28;20156;-76
2022/12/19 00:19:41;;;;;;;0.30;0.30;;;;;;;-0.25;100.00;101821.19;4981480;28;20038;-74
2022/12/19 00:22:06;;;;;;;0.30;0.30;;;;;;;-0.08;100.00;101815.63;4981083;28;20034;-75
2022/12/19 00:24:32;;;;;;;0.30;0.30;;;;;;;-0.36;100.00;101813.47;4988500;28;20038;-76
2022/12/19 00:26:57;;;;;;;0.30;0.30;;;;;;;-0.30;100.00;101794.88;4980881;28;20057;-76
2022/12/19 00:29:22;;;;;;;0.30;0.30;;;;;;;-0.35;100.00;101805.50;4981117;28;20042;-77
2022/12/19 00:31:48;;;;;;;0.40;0.40;;;;;;;-0.33;100.00;101797.56;4984234;28;20062;-75
2022/12/19 00:34:13;;;;;;;0.30;0.30;;;;;;;-0.26;100.00;101788.63;4980300;28;20388;-75
2022/12/19 00:36:39;;;;;;;0.30;0.30;;;;;;;-0.21;100.00;101800.00;4976331;28;20120;-76
2022/12/19 00:39:05;;;;;;;0.30;0.30;;;;;;;-0.13;100.00;101768.16;4977397;28;20041;-75
2022/12/19 00:41:32;;;;;;;0.40;0.40;;;;;;;-0.43;100.00;101743.19;4975564;28;20034;-74
2022/12/19 00:43:59;;;;;;;0.40;0.40;;;;;;;-0.27;100.00;101778.13;4978292;28;20618;-73
2022/12/19 00:46:26;;;;;;;0.30;0.30;;;;;;;-0.22;100.00;101763.94;4975337;28;20359;-75
2022/12/19 00:48:52;;;;;;;0.30;0.30;;;;;;;0.01;100.00;101756.50;4960800;28;20376;-75
2022/12/19 00:51:19;;;;;;;0.30;0.30;;;;;;;-0.17;100.00;101727.78;4959789;28;20045;-74
2022/12/19 00:53:46;;;;;;;0.30;0.30;;;;;;;0.17;100.00;101736.81;4988059;28;20015;-73
2022/12/19 00:56:27;;;;;;;0.40;0.40;;;;;;;0.22;100.00;101750.78;4975209;28;20038;-75
2022/12/19 00:58:53;;;;;;;0.30;0.30;;;;;;;0.37;100.00;101739.06;4973887;28;20026;-74
2022/12/19 01:01:21;;;;;;;0.30;0.30;;;;;;;0.24;100.00;101696.16;4990194;28;20833;-77
2022/12/19 01:03:47;;;;;;;0.30;0.30;;;;;;;0.26;100.00;101710.22;4986241;28;20140;-75
2022/12/19 01:06:12;;;;;;;0.30;0.30;;;;;;;0.58;100.00;101729.81;4975471;28;20503;-75
2022/12/19 01:08:38;;;;;;;0.30;0.30;;;;;;;0.48;100.00;101730.91;4978993;28;20056;-77
2022/12/19 01:11:04;;;;;;;0.30;0.30;;;;;;;0.19;100.00;101716.50;4974324;28;20042;-77
2022/12/19 01:13:30;;;;;;;0.30;0.30;;;;;;;0.23;100.00;101696.22;4962006;28;20513;-77
2022/12/19 01:15:56;;;;;;;0.30;0.30;;;;;;;0.37;100.00;101732.91;4977625;28;20035;-76
2022/12/19 01:18:21;;;;;;;0.30;0.30;;;;;;;0.52;100.00;101714.06;4974572;28;20042;-77
2022/12/19 01:20:47;;;;;;;0.38;0.38;;;;;;;0.29;100.00;101702.22;4975963;28;20035;-76
2022/12/19 01:23:14;;;;;;;0.30;0.30;;;;;;;0.70;100.00;101735.72;5003280;28;20393;-76
2022/12/19 01:25:40;;;;;;;0.30;0.30;;;;;;;0.73;100.00;101733.88;4981726;28;20493;-76
2022/12/19 01:28:06;;;;;;;0.30;0.30;;;;;;;0.78;100.00;101728.50;4978088;28;20053;-76
2022/12/19 01:30:32;;;;;;;0.30;0.30;;;;;;;0.51;100.00;101696.47;4979543;28;20026;-78
2022/12/19 01:32:58;;;;;;;0.30;0.30;;;;;;;0.63;100.00;101690.03;4977428;28;20037;-74
2022/12/19 01:35:24;;;;;;;0.30;0.30;;;;;;;0.53;100.00;101681.47;4965476;28;20137;-75
2022/12/19 01:37:53;;;;;;;0.30;0.30;;;;;;;0.65;100.00;101701.47;4976993;28;20030;-76
2022/12/19 01:40:19;;;;;;;0.40;0.40;;;;;;;0.74;100.00;101708.31;4976336;28;20038;-76
2022/12/19 01:42:44;;;;;;;0.30;0.30;;;;;;;0.71;100.00;101680.19;4982107;28;20077;-76
2022/12/19 01:45:09;;;;;;;0.30;0.30;;;;;;;0.65;100.00;101701.47;4980049;28;20042;-77
2022/12/19 01:47:47;;;;;;;0.30;0.30;;;;;;;0.65;100.00;101695.31;4977737;28;20049;-76
2022/12/19 01:50:17;;;;;;;0.30;0.30;;;;;;;0.95;100.00;101703.41;4975049;28;20129;-76
2022/12/19 01:52:42;;;;;;;0.30;0.30;;;;;;;0.65;100.00;101693.53;4971644;28;20355;-76
2022/12/19 01:55:09;;;;;;;0.30;0.30;;;;;;;0.81;100.00;101687.88;4982625;28;20026;-77
2022/12/19 01:57:37;;;;;;;0.30;0.30;;;;;;;1.07;100.00;101691.66;4971441;28;20500;-77
2022/12/19 02:00:04;;;;;;;0.30;0.30;;;;;;;1.00;100.00;101696.25;4958955;28;20040;-76
2022/12/19 02:02:40;;;;;;;0.30;0.30;;;;;;;1.01;100.00;101696.22;4972789;28;20030;-76
2022/12/19 02:05:06;;;;;;;0.30;0.30;;;;;;;0.87;100.00;101685.09;4974833;28;20054;-76
2022/12/19 02:07:31;;;;;;;0.30;0.30;;;;;;;0.70;100.00;101680.19;4978243;28;20400;-77
2022/12/19 02:09:57;;;;;;;0.30;0.30;;;;;;;0.75;100.00;101659.81;4976746;28;20504;-77
2022/12/19 02:12:29;;;;;;;0.30;0.30;;;;;;;1.14;100.00;101669.47;4973237;28;21110;-75
2022/12/19 02:14:55;;;;;;;0.30;0.30;;;;;;;0.76;100.00;101643.06;4978088;28;20430;-78
2022/12/19 02:17:42;;;;;;;0.30;0.30;;;;;;;1.00;100.00;101660.09;4960776;28;20117;-73
2022/12/19 02:20:43;;;;;;;0.30;0.30;;;;;;;1.27;100.00;101655.03;4980233;28;20034;-74
2022/12/19 02:23:43;;;;;;;0.30;0.30;;;;;;;0.93;100.00;101639.16;4974507;28;20026;-76
2022/12/19 02:26:43;;;;;;;0.20;0.20;;;;;;;1.14;100.00;101651.84;4990837;28;20088;-74
2022/12/19 02:29:31;;;;;;;0.30;0.30;;;;;;;1.05;100.00;101641.47;4983216;28;20041;-75
2022/12/19 02:32:29;;;;;;;0.30;0.30;;;;;;;1.32;100.00;101652.25;4978799;28;20030;-74
2022/12/19 02:35:28;;;;;;;0.30;0.30;;;;;;;1.36;100.00;101651.28;4964608;28;20038;-75
2022/12/19 02:38:03;;;;;;;0.30;0.30;;;;;;;1.31;100.00;101638.19;4983722;28;20586;-74
2022/12/19 02:40:32;;;;;;;0.30;0.30;;;;;;;1.07;100.00;101620.25;4973406;28;20136;-75
2022/12/19 02:42:59;;;;;;;0.30;0.30;;;;;;;1.43;100.00;101628.16;4997281;28;20081;-75
2022/12/19 02:45:33;;;;;;;0.30;0.30;;;;;;;1.42;100.00;101603.47;4979727;28;20041;-74
2022/12/19 02:48:00;;;;;;;0.30;0.30;;;;;;;1.51;100.00;101620.88;4983385;28;20204;-76
2022/12/19 02:50:25;;;;;;;0.30;0.30;;;;;;;1.45;100.00;101639.56;4981017;28;20038;-76
2022/12/19 02:52:51;;;;;;;0.30;0.30;;;;;;;1.59;100.00;101620.66;4983008;28;20046;-76
2022/12/19 02:55:22;;;;;;;0.28;0.28;;;;;;;1.43;100.00;101626.41;4983244;28;20132;-76
2022/12/19 02:58:02;;;;;;;0.30;0.30;;;;;;;1.52;100.00;101604.09;4978614;28;20026;-77
2022/12/19 03:00:27;;;;;;;0.30;0.30;;;;;;;1.50;100.00;101620.00;4979920;28;20113;-76
2022/12/19 03:03:08;;;;;;;0.30;0.30;;;;;;;1.32;100.00;101609.91;4975363;28;20030;-75
2022/12/19 03:05:46;;;;;;;0.28;0.28;;;;;;;1.61;100.00;101606.47;4976664;28;20518;-74
2022/12/19 03:08:38;;;;;;;0.20;0.20;;;;;;;1.61;100.00;101600.31;4975979;28;20106;-79
2022/12/19 03:11:09;;;;;;;0.30;0.30;;;;;;;1.48;100.00;101560.94;4970956;28;20037;-76
2022/12/19 03:13:41;;;;;;;0.30;0.30;;;;;;;1.62;100.00;101591.47;4960430;28;20385;-76
2022/12/19 03:16:08;;;;;;;0.30;0.30;;;;;;;1.92;100.00;101620.63;4995303;28;20524;-76
2022/12/19 03:18:33;;;;;;;0.30;0.30;;;;;;;1.93;100.00;101594.09;4975112;28;20026;-75
2022/12/19 03:21:05;;;;;;;0.30;0.30;;;;;;;1.68;100.00;101603.66;4973016;28;20153;-76
2022/12/19 03:23:30;;;;;;;0.30;0.30;;;;;;;1.70;100.00;101594.78;4977342;28;20706;-78
2022/12/19 03:26:08;;;;;;;0.30;0.30;;;;;;;1.88;100.00;101590.69;4979968;28;20089;-77
2022/12/19 03:28:48;;;;;;;0.20;0.20;;;;;;;1.72;100.00;101603.50;4993765;28;20041;-77
2022/12/19 03:31:14;;;;;;;0.30;0.30;;;;;;;1.79;100.00;101577.75;4998089;28;21589;-75
2022/12/19 03:33:40;;;;;;;0.30;0.30;;;;;;;1.40;100.00;101568.25;4993355;28;20029;-78
2022/12/19 03:36:09;;;;;;;0.22;0.22;;;;;;;1.69;100.00;101561.28;4977983;28;20038;-76
2022/12/19 03:38:36;;;;;;;0.20;0.20;;;;;;;1.73;100.00;101562.88;4966024;28;20021;-76
2022/12/19 03:41:03;;;;;;;0.30;0.30;;;;;;;1.94;100.00;101581.72;4980201;28;20564;-75
2022/12/19 03:43:29;;;;;;;0.30;0.30;;;;;;;1.67;100.00;101570.16;4995091;28;20070;-75
2022/12/19 03:46:01;;;;;;;0.20;0.20;;;;;;;1.91;100.00;101576.53;4979216;28;20137;-76
2022/12/19 03:48:32;;;;;;;0.20;0.20;;;;;;;1.80;100.00;101576.84;4994583;28;20039;-78
2022/12/19 03:50:57;;;;;;;0.30;0.30;;;;;;;1.85;100.00;101588.16;4979072;28;20033;-77
2022/12/19 03:53:30;;;;;;;0.30;0.30;;;;;;;2.16;100.00;101584.56;4980305;28;20026;-76
2022/12/19 03:56:06;;;;;;;0.20;0.20;;;;;;;2.15;100.00;101551.03;4993118;28;20057;-79
2022/12/19 03:58:34;;;;;;;0.30;0.30;;;;;;;1.97;100.00;101533.09;4985047;28;20049;-78
2022/12/19 04:01:00;;;;;;;0.20;0.20;;;;;;;2.00;100.00;101527.69;4983474;28;20038;-76
2022/12/19 04:03:27;;;;;;;0.25;0.25;;;;;;;2.37;100.00;101571.59;4968863;28;20570;-76
2022/12/19 04:05:53;;;;;;;0.30;0.30;;;;;;;2.14;100.00;101528.13;4979742;28;20034;-76
2022/12/19 04:08:19;;;;;;;0.30;0.30;;;;;;;2.32;100.00;101534.63;4976100;28;20022;-76
2022/12/19 04:10:52;;;;;;;0.30;0.30;;;;;;;2.24;100.00;101537.53;4980824;28;20041;-77
2022/12/19 04:13:25;;;;;;;0.20;0.20;;;;;;;2.46;100.00;101520.91;4974665;28;20030;-75
2022/12/19 04:16:12;;;;;;;0.20;0.20;;;;;;;2.40;100.00;101551.16;4976447;28;20037;-76
2022/12/19 04:18:39;;;;;;;0.20;0.20;;;;;;;2.52;100.00;101541.94;4977196;28;20058;-77
2022/12/19 04:21:11;;;;;;;0.28;0.28;;;;;;;2.48;100.00;101544.75;4993432;28;20540;-76
2022/12/19 04:23:43;;;;;;;0.20;0.20;;;;;;;2.63;100.00;101546.03;4984632;28;20070;-76
2022/12/19 04:26:09;;;;;;;0.20;0.20;;;;;;;2.81;100.00;101540.09;4980416;28;20509;-78
2022/12/19 04:28:39;;;;;;;0.30;0.30;;;;;;;2.73;100.00;101533.31;4983962;28;20038;-77
2022/12/19 04:31:05;;;;;;;0.20;0.20;;;;;;;2.68;100.00;101544.06;4982401;28;20027;-77
2022/12/19 04:33:30;;;;;;;0.30;0.30;;;;;;;2.82;100.00;101540.94;4977789;28;20029;-76
2022/12/19 04:35:56;;;;;;;0.20;0.20;;;;;;;2.70;100.00;101526.31;4979713;28;20503;-77
2022/12/19 04:38:21;;;;;;;0.30;0.30;;;;;;;2.76;100.00;101525.28;4976663;28;20045;-76
2022/12/19 04:40:47;;;;;;;0.20;0.20;;;;;;;2.77;100.00;101516.41;4978579;28;20061;-76
2022/12/19 04:43:12;;;;;;;0.20;0.20;;;;;;;3.04;100.00;101522.50;4979088;28;20152;-76
2022/12/19 04:45:39;;;;;;;0.20;0.20;;;;;;;2.77;100.00;101519.91;4981173;28;20026;-76
2022/12/19 04:48:04;;;;;;;0.20;0.20;;;;;;;2.89;100.00;101523.06;4978800;28;20100;-75
2022/12/19 04:50:31;;;;;;;0.20;0.20;;;;;;;3.24;100.00;101518.28;4982271;28;21007;-76
2022/12/19 04:52:57;;;;;;;0.20;0.20;;;;;;;3.06;100.00;101530.41;4980089;28;20073;-76
2022/12/19 04:55:22;;;;;;;0.20;0.20;;;;;;;3.09;100.00;101514.38;4979455;28;20031;-76
2022/12/19 04:57:48;;;;;;;0.20;0.20;;;;;;;3.32;100.00;101508.25;4978458;28;20153;-78
2022/12/19 05:00:14;;;;;;;0.20;0.20;;;;;;;3.24;100.00;101513.84;4964110;28;20030;-77
2022/12/19 05:02:39;;;;;;;0.30;0.30;;;;;;;3.35;100.00;101494.88;4981188;28;20041;-76
2022/12/19 05:05:05;;;;;;;0.28;0.28;;;;;;;3.26;100.00;101517.31;4981996;28;20497;-76
2022/12/19 05:07:30;;;;;;;0.20;0.20;;;;;;;3.25;100.00;101509.38;4982745;28;20714;-78
2022/12/19 05:09:58;;;;;;;0.20;0.20;;;;;;;3.48;100.00;101534.22;4979884;28;20128;-77
2022/12/19 05:12:24;;;;;;;0.20;0.20;;;;;;;3.45;100.00;101529.91;4979794;28;20034;-78
2022/12/19 05:14:49;;;;;;;0.20;0.20;;;;;;;3.54;100.00;101510.97;4961989;28;20080;-76
2022/12/19 05:17:14;;;;;;;0.30;0.30;;;;;;;3.58;100.00;101514.38;4979886;28;20036;-76
2022/12/19 05:19:40;;;;;;;0.22;0.22;;;;;;;3.68;100.00;101521.09;4981819;28;20026;-77
2022/12/19 05:22:05;;;;;;;0.20;0.20;;;;;;;3.60;100.00;101502.75;4981230;28;20030;-78
2022/12/19 05:24:30;;;;;;;0.20;0.20;;;;;;;3.34;100.00;101500.22;4979007;28;20073;-80
2022/12/19 05:26:56;;;;;;;0.20;0.20;;;;;;;3.80;100.00;101494.97;4980747;28;20034;-78
2022/12/19 05:29:21;;;;;;;0.20;0.20;;;;;;;3.79;100.00;101510.06;4978592;28;20066;-76
2022/12/19 05:31:46;;;;;;;0.30;0.30;;;;;;;3.69;100.00;101492.72;4979115;28;20105;-76
2022/12/19 05:34:12;;;;;;;0.20;0.20;;;;;;;4.06;100.00;101499.25;4975627;28;20034;-78
2022/12/19 05:36:37;;;;;;;0.20;0.20;;;;;;;3.85;100.00;101503.63;4976859;28;20148;-77
2022/12/19 05:39:02;;;;;;;0.20;0.20;;;;;;;3.80;100.00;101505.59;4978659;28;20029;-76
2022/12/19 05:41:28;;;;;;;0.20;0.20;;;;;;;3.77;100.00;101503.94;4960607;28;20038;-78
2022/12/19 05:43:55;;;;;;;0.20;0.20;;;;;;;3.85;100.00;101503.63;4961903;28;20339;-78
2022/12/19 05:46:21;;;;;;;0.20;0.20;;;;;;;4.15;100.00;101498.88;4978216;28;20037;-77
2022/12/19 05:48:46;;;;;;;0.10;0.10;;;;;;;4.02;100.00;101511.78;4974479;28;20026;-76
2022/12/19 05:51:12;;;;;;;0.20;0.20;;;;;;;3.93;100.00;101474.09;4961979;28;20480;-75
2022/12/19 05:53:38;;;;;;;0.20;0.20;;;;;;;4.29;100.00;101497.47;4992902;28;20034;-75
2022/12/19 05:56:06;;;;;;;0.20;0.20;;;;;;;4.49;100.00;101478.88;4972849;28;20112;-75
2022/12/19 05:58:32;;;;;;;0.20;0.20;;;;;;;4.82;100.00;101493.47;4976585;28;20027;-75
2022/12/19 06:01:02;;;;;;;0.20;0.20;;;;;;;4.50;100.00;101498.38;4976723;28;20026;-74
2022/12/19 06:03:28;;;;;;;0.20;0.20;;;;;;;4.74;100.00;101498.28;4997930;28;20041;-76
2022/12/19 06:05:53;;;;;;;0.10;0.10;;;;;;;4.63;100.00;101485.44;4969053;28;20030;-76
2022/12/19 06:08:18;;;;;;;0.20;0.20;;;;;;;4.59;100.00;101495.31;4984568;28;20029;-76
2022/12/19 06:10:44;;;;;;;0.20;0.20;;;;;;;4.71;100.00;101485.94;4977552;28;20037;-77
2022/12/19 06:13:09;;;;;;;0.10;0.10;;;;;;;4.95;100.00;101460.06;4979357;28;20038;-76
2022/12/19 06:15:34;;;;;;;0.10;0.10;;;;;;;5.07;100.00;101498.59;4978506;28;20157;-75
2022/12/19 06:18:00;;;;;;;0.20;0.20;;;;;;;5.17;100.00;101499.03;4976962;28;20112;-74
2022/12/19 06:20:25;;;;;;;0.10;0.10;;;;;;;5.30;100.00;101471.88;4979782;28;20030;-76
2022/12/19 06:22:50;;;;;;;0.10;0.10;;;;;;;5.05;100.00;101471.19;4980476;28;20036;-76
2022/12/19 06:25:16;;;;;;;0.20;0.20;;;;;;;5.42;100.00;101489.94;4978175;28;20038;-75
2022/12/19 06:27:42;;;;;;;0.10;0.10;;;;;;;5.40;100.00;101483.81;4975867;28;20052;-76
2022/12/19 06:30:08;;;;;;;0.10;0.10;;;;;;;5.38;100.00;101459.94;4971802;28;20038;-75
2022/12/19 06:32:33;;;;;;;0.10;0.10;;;;;;;5.38;100.00;101470.59;4970862;28;20045;-76
2022/12/19 06:34:59;;;;;;;0.20;0.20;;;;;;;5.42;100.00;101494.44;4963085;28;20034;-76
2022/12/19 06:37:24;;;;;;;0.10;0.10;;;;;;;5.81;100.00;101498.81;4975996;28;20057;-75
2022/12/19 06:39:50;;;;;;;0.10;0.10;;;;;;;5.68;100.00;101487.88;4973214;28;20457;-75
2022/12/19 06:42:24;;;;;;;0.10;0.10;;;;;;;5.60;100.00;101509.56;4969947;28;20034;-75
2022/12/19 06:44:52;;;;;;;;;;;;;;;5.41;100.00;101501.53;4957329;28;20137;-76
2022/12/19 06:47:18;;;;;;;0.20;0.20;;;;;;;5.56;100.00;101500.81;4974290;28;20436;-75
2022/12/19 06:49:47;;;;;;;0.20;0.20;;;;;;;5.51;100.00;101493.97;4988705;28;20136;-75
2022/12/19 06:52:13;;;;;;;0.13;0.13;;;;;;;5.52;100.00;101499.25;4959201;28;20129;-74
2022/12/19 06:54:39;;;;;;;0.10;0.10;;;;;;;5.55;100.00;101474.25;4973326;28;20373;-75
2022/12/19 06:57:04;;;;;;;0.10;0.10;;;;;;;6.03;100.00;101506.69;4978592;28;20033;-73
2022/12/19 06:59:30;;;;;;;0.10;0.10;;;;;;;5.88;100.00;101478.94;4976799;28;20070;-73
2022/12/19 07:01:59;;;;;;;0.20;0.20;;;;;;;5.82;100.00;101517.41;4973171;28;20038;-76
2022/12/19 07:04:39;;;;;;;0.10;0.10;;;;;;;5.88;100.00;101486.06;4978146;28;20054;-74
2022/12/19 07:07:06;;;;;;;0.10;0.10;;;;;;;6.17;100.00;101500.69;4976509;28;20037;-77
2022/12/19 07:09:32;;;;;;;0.10;0.10;;;;;;;5.97;100.00;101512.28;4964575;28;20022;-74
2022/12/19 07:11:57;;;;;;;0.10;0.10;;;;;;;6.18;100.00;101502.44;4977880;28;20026;-73
2022/12/19 07:14:23;;;;;;;0.10;0.10;;;;;;;6.15;100.00;101515.91;4978351;28;20081;-74
2022/12/19 07:16:49;;;;;;;0.20;0.20;;;;;;;6.24;100.00;101463.94;4957080;28;20817;-75
2022/12/19 07:19:14;;;;;;;0.10;0.10;;;;;;;6.27;100.00;101509.97;4976190;28;20042;-74
2022/12/19 07:21:40;;;;;;;0.13;0.13;;;;;;;6.41;100.00;101477.28;4975903;28;20065;-75
2022/12/19 07:24:06;;;;;;;0.10;0.10;;;;;;;6.54;100.00;101476.66;4979352;28;20041;-74
2022/12/19 07:26:31;;;;;;;0.10;0.10;;;;;;;6.46;100.00;101498.41;4975414;28;20038;-74
2022/12/19 07:28:58;;;;;;;0.10;0.10;;;;;;;6.66;100.00;101504.53;4977145;28;20504;-73
2022/12/19 07:31:23;;;;;;;0.10;0.10;;;;;;;6.67;100.00;101482.25;4972820;28;20033;-74
2022/12/19 07:33:48;;;;;;;0.10;0.10;;;;;;;6.35;100.00;101496.28;4978615;28;20034;-72
2022/12/19 07:36:14;;;;;;;0.10;0.10;;;;;;;6.28;100.00;101495.69;4974668;28;20041;-75
2022/12/19 07:38:39;;;;;;;0.10;0.10;;;;;;;6.21;100.00;101504.94;4954124;28;20038;-73
2022/12/19 07:41:04;;;;;;;0.10;0.10;;;;;;;6.12;100.00;101527.56;4975591;28;20126;-74
2022/12/19 07:43:30;;;;;;;0.10;0.10;;;;;;;6.34;100.00;101486.53;4977979;28;20061;-77
2022/12/19 07:45:56;;;;;;;0.10;0.10;;;;;;;6.27;100.00;101522.44;4971667;28;20081;-74
2022/12/19 07:48:22;;;;;;;0.10;0.10;;;;;;;6.22;100.00;101482.69;4973121;28;20049;-76
2022/12/19 07:50:48;;;;;;;0.10;0.10;;;;;;;6.35;100.00;101530.94;4951090;28;20188;-74
2022/12/19 07:53:14;;;;;;;0.10;0.10;;;;;;;6.51;100.00;101504.34;4975842;28;20412;-73
2022/12/19 07:55:39;;;;;;;0.10;0.10;;;;;;;6.69;100.00;101528.41;4972650;28;20061;-74
2022/12/19 07:58:04;;;;;;;0.10;0.10;;;;;;;6.42;100.00;101496.81;4981417;28;20034;-72
2022/12/19 08:00:30;;;;;;;0.10;0.10;;;;;;;6.50;100.00;101515.09;4967387;28;20033;-73
2022/12/19 08:02:57;;;;;;;0.10;0.10;;;;;;;6.21;100.00;101509.41;4981750;28;20030;-73
2022/12/19 08:05:23;;;;;;;0.10;0.10;;;;;;;6.56;100.00;101496.13;4985050;28;20025;-74
2022/12/19 08:07:48;;;;;;;0.10;0.10;;;;;;;6.52;100.00;101482.06;4992294;28;20362;-73
2022/12/19 08:10:14;;;;;;;0.10;0.10;;;;;;;6.39;100.00;101516.50;4990643;28;20049;-74
2022/12/19 08:12:40;;;;;;;0.10;0.10;;;;;;;6.30;100.00;101488.47;4987305;28;20052;-75
2022/12/19 08:15:05;;;;;;;0.10;0.10;;;;;;;6.31;100.00;101518.69;4987799;28;20596;-76
2022/12/19 08:17:31;;;;;;;0.20;0.20;;;;;;;6.44;100.00;101517.13;4983080;28;20034;-73
2022/12/19 08:19:56;;;;;;;0.10;0.10;;;;;;;6.32;100.00;101535.53;4970298;28;20030;-73
2022/12/19 08:22:22;;;;;;;0.10;0.10;;;;;;;6.71;100.00;101531.84;4987048;28;20030;-74
2022/12/19 08:24:47;;;;;;;0.10;0.10;;;;;;;6.56;100.00;101528.16;4979316;28;20034;-75
2022/12/19 08:27:14;;;;;;;0.10;0.10;;;;;;;6.64;100.00;101543.78;4976427;28;20547;-73
2022/12/19 08:29:40;;;;;;;0.10;0.10;;;;;;;6.36;100.00;101537.13;4965258;28;20113;-74
2022/12/19 08:32:05;;;;;;;0.10;0.10;;;;;;;6.26;100.00;101528.72;4972921;28;20125;-75
2022/12/19 08:34:31;;;;;;;0.10;0.10;;;;;;;6.28;100.00;101537.50;4958136;28;20125;-73
2022/12/19 08:36:57;;;;;;;0.10;0.10;;;;;;;6.44;100.00;101534.97;4973211;28;20053;-73
2022/12/19 08:39:22;;;;;;;0.10;0.10;;;;;;;6.44;100.00;101525.13;4978369;28;20469;-74
2022/12/19 08:41:47;;;;;;;0.10;0.10;;;;;;;6.43;100.00;101523.41;4972820;28;20034;-73
2022/12/19 08:44:13;;;;;;;0.10;0.10;;;;;;;6.53;100.00;101501.63;4975784;28;20034;-73
2022/12/19 08:46:38;;;;;;;0.10;0.10;;;;;;;6.59;100.00;101501.31;4977270;28;20072;-74
2022/12/19 08:49:03;;;;;;;0.10;0.10;;;;;;;6.75;100.00;101509.41;4977286;28;20033;-74
2022/12/19 08:51:29;;;;;;;0.10;0.10;;;;;;;6.71;100.00;101518.50;4975346;28;20030;-76
2022/12/19 08:53:54;;;;;;;0.10;0.10;;;;;;;6.45;100.00;101539.34;4958931;28;20022;-74
2022/12/19 08:56:21;;;;;;;0.10;0.10;;;;;;;6.51;100.00;101512.34;4960055;28;20085;-74
2022/12/19 08:58:46;;;;;;;0.10;0.10;;;;;;;6.60;100.00;101540.41;4989251;28;20034;-73
2022/12/19 09:01:22;;;;;;;0.10;0.10;;;;;;;6.70;100.00;101543.47;4978410;28;20519;-76
2022/12/19 09:03:48;;;;;;;0.20;0.20;;;;;;;6.73;100.00;101541.50;4971678;28;20037;-75
2022/12/19 09:06:14;;;;;;;0.10;0.10;;;;;;;6.67;100.00;101546.28;4973081;28;20467;-75
2022/12/19 09:08:40;;;;;;;0.10;0.10;;;;;;;6.63;100.00;101526.03;4978917;28;20631;-75
2022/12/19 09:11:07;;;;;;;0.10;0.10;;;;;;;6.87;100.00;101540.81;4989690;28;20797;-74
2022/12/19 09:13:33;;;;;;;0.10;0.10;;;;;;;6.52;100.00;101531.91;4991306;28;20030;-72
2022/12/19 09:16:04;;;;;;;0.20;0.20;;;;;;;6.77;100.00;101552.03;4990610;28;20030;-74
2022/12/19 09:18:33;;;;;;;0.10;0.10;;;;;;;6.70;100.00;101519.44;4978342;28;20124;-75
2022/12/19 09:20:59;;;;;;;0.10;0.10;;;;;;;6.97;100.00;101546.53;4976499;28;20508;-75
2022/12/19 09:23:26;;;;;;;0.10;0.10;;;;;;;6.90;100.00;101535.31;4975028;28;20516;-75
2022/12/19 09:25:52;;;;;;;0.10;0.10;;;;;;;6.86;100.00;101528.38;4976450;28;20121;-73
2022/12/19 09:28:17;;;;;;;0.10;0.10;;;;;;;6.90;100.00;101535.31;4974477;28;20529;-75
2022/12/19 09:30:42;;;;;;;0.10;0.10;;;;;;;6.90;100.00;101562.00;4960852;28;20036;-72
2022/12/19 09:33:08;;;;;;;0.10;0.10;;;;;;;6.81;100.00;101530.44;4973426;28;20677;-76
2022/12/19 09:35:33;;;;;;;0.10;0.10;;;;;;;6.83;100.00;101536.56;4974456;28;21006;-76
2022/12/19 09:37:58;;;;;;;0.10;0.10;;;;;;;7.12;100.00;101533.34;4975539;28;20041;-76
2022/12/19 09:40:26;;;;;;;0.10;0.10;;;;;;;6.95;100.00;101553.75;4975585;28;20042;-73
2022/12/19 09:43:06;;;;;;;0.10;0.10;;;;;;;7.23;100.00;101554.16;4989701;28;20030;-77
2022/12/19 09:46:10;;;;;;;0.10;0.10;;;;;;;7.07;100.00;101560.25;4976916;28;20436;-73
2022/12/19 09:48:35;;;;;;;0.10;0.10;;;;;;;6.90;100.00;101551.31;4961251;28;20034;-78
2022/12/19 09:51:14;;;;;;;0.10;0.10;;;;;;;7.36;100.00;101571.25;4982098;28;20077;-77
2022/12/19 09:53:58;;;;;;;0.10;0.10;;;;;;;7.01;100.00;101561.44;4996762;28;20061;-74
2022/12/19 09:56:28;;;;;;;0.10;0.10;;;;;;;7.30;100.00;101569.75;4978491;28;20457;-76
2022/12/19 09:58:59;;;;;;;0.10;0.10;;;;;;;7.34;100.00;101574.00;4987094;28;20115;-75
2022/12/19 10:01:29;;;;;;;0.10;0.10;;;;;;;6.98;100.00;101540.25;4991360;28;20037;-75
2022/12/19 10:04:05;;;;;;;0.10;0.10;;;;;;;7.28;100.00;101574.31;4969493;28;20027;-72
2022/12/19 10:06:31;;;;;;;0.10;0.10;;;;;;;7.09;100.00;101539.69;4988608;28;20073;-75
2022/12/19 10:08:59;;;;;;;0.10;0.10;;;;;;;6.96;100.00;101560.81;4967460;28;20316;-72
2022/12/19 10:11:37;;;;;;;0.10;0.10;;;;;;;7.19;100.00;101564.09;4971216;28;20150;-72
2022/12/19 10:14:02;;;;;;;0.10;0.10;;;;;;;7.32;100.00;101565.22;4972546;28;20022;-75
2022/12/19 10:16:58;;;;;;;0.10;0.10;;;;;;;7.25;100.00;101562.94;4979205;28;20566;-73
2022/12/19 10:19:31;;;;;;;0.10;0.10;;;;;;;7.08;100.00;101579.84;4975771;28;20026;-73
2022/12/19 10:22:24;;;;;;;0.10;0.10;;;;;;;7.18;100.00;101551.69;4998615;28;20030;-73
2022/12/19 10:25:24;;;;;;;0.10;0.10;;;;;;;7.39;100.00;101570.22;4962610;28;20109;-74
2022/12/19 10:28:11;;;;;;;0.05;0.05;;;;;;;7.42;100.00;101562.03;4993827;28;20026;-73
2022/12/19 10:30:43;;;;;;;0.10;0.10;;;;;;;7.56;100.00;101559.50;4978207;28;20034;-73
2022/12/19 10:33:47;;;;;;;0.10;0.10;;;;;;;7.22;100.00;101563.09;4979524;28;20695;-73
2022/12/19 10:36:14;;;;;;;0.10;0.10;;;;;;;7.05;100.00;101533.66;4947691;28;20128;-74
2022/12/19 10:38:46;;;;;;;0.10;0.10;;;;;;;7.28;100.00;101560.13;4975157;28;20031;-73
2022/12/19 10:41:21;;;;;;;0.10;0.10;;;;;;;7.34;100.00;101536.59;4999244;28;20030;-73
2022/12/19 10:44:08;;;;;;;0.10;0.10;;;;;;;7.60;100.00;101557.50;4972976;28;20121;-73
2022/12/19 10:46:55;;;;;;;0.10;0.10;;;;;;;7.62;100.00;101544.94;4985776;28;20128;-72
2022/12/19 10:49:24;;;;;;;0.10;0.10;;;;;;;7.70;100.00;101558.75;4983194;28;20038;-72
2022/12/19 10:52:09;;;;;;;0.10;0.10;;;;;;;7.78;100.00;101550.31;4979636;28;20022;-72
2022/12/19 10:54:40;;;;;;;0.10;0.10;;;;;;;7.87;100.00;101548.94;4971906;28;20018;-73
2022/12/19 10:57:22;;;;;;;0.10;0.10;;;;;;;7.53;100.00;101564.16;4982187;28;20034;-72
2022/12/19 11:00:04;;;;;;;0.10;0.10;;;;;;;7.61;100.00;101559.25;4987777;28;20514;-72
2022/12/19 11:02:46;;;;;;;0.10;0.10;;;;;;;7.48;100.00;101548.34;4976161;28;20495;-72
2022/12/19 11:05:22;;;;;;;0.10;0.10;;;;;;;7.42;100.00;101562.91;4979380;28;20385;-70
2022/12/19 11:08:07;;;;;;;0.10;0.10;;;;;;;7.22;100.00;101536.38;4980105;28;20536;-72
2022/12/19 11:10:41;;;;;;;0.15;0.15;;;;;;;7.40;100.00;101550.59;4980237;28;20030;-74
2022/12/19 11:13:44;;;;;;;0.10;0.10;;;;;;;7.65;100.00;101524.28;4974381;28;20049;-72
2022/12/19 11:16:11;;;;;;;0.10;0.10;;;;;;;7.18;100.00;101507.16;4998036;28;20122;-78
2022/12/19 11:18:44;;;;;;;0.10;0.10;;;;;;;7.53;100.00;101546.31;4981950;28;20037;-74
2022/12/19 11:21:15;;;;;;;0.10;0.10;;;;;;;7.30;100.00;101539.50;4981366;28;20030;-78
2022/12/19 11:24:05;;;;;;;0.10;0.10;;;;;;;7.34;100.00;101530.38;4989266;28;20054;-75
2022/12/19 11:26:40;;;;;;;0.15;0.15;;;;;;;7.35;100.00;101527.66;4966273;28;20114;-77
2022/12/19 11:29:22;;;;;;;0.10;0.10;;;;;;;7.53;100.00;101534.75;4983856;28;20495;-76
2022/12/19 11:31:53;;;;;;;0.10;0.10;;;;;;;7.19;100.00;101483.97;4982966;28;20030;-74
2022/12/19 11:34:22;;;;;;;0.10;0.10;;;;;;;7.54;100.00;101520.47;4999617;28;20515;-73